»·PEaware :: N9635B KBUR-KLAS

N9635B :: KBUR-KLAS

FLIGHT INFORMATION

Flight Status: Arrived
Operator: Privately registered:
United States
More flights under this callsign
Pilot: Rob M. (16242)
Aircraft: CESSNA 425 CORSAIR CONQUEST 1
(C425)
More flights by this aircraft type
Origin: KBUR Bob Hope-Burbank
United States
Destination: KLAS McCarran Intl
United States
More flights between these airports :: More routes between these airports
Route: +VNY3 DAG CRES03
File this flight plan on PilotEdge
Remarks: I 5 Rating
Altitude:
(Current/Filed)
7,000ft
Speed:
(Current/Filed)
180kts
Departed: 02-Aug-17 01:55 PM
Arrived: 02-Aug-17 02:56 PM
Distance/Time
Traveled:
194nm/1:01
Distance/Time
To Go:
Arrived

Flight Plot

Page will automatically refresh every two minutes.

Flight plan parsing failed; only flown route is shown


Map Options




Map Legend


Flown Route
Filed Route
Departure Airport
Arrival Airport
Navaid (VOR, NDB)
Fix

Horizontal Profiles

Position Reports

Time Latitude Longitude Heading Altitude Ground
Speed
02-Aug-17 13:47 34.210743 -118.357941 257 756ft 0kts
02-Aug-17 13:48 34.210743 -118.357941 257 756ft 0kts
02-Aug-17 13:49 34.210743 -118.357941 257 756ft 0kts
02-Aug-17 13:50 34.210743 -118.357941 257 756ft 0kts
02-Aug-17 13:51 34.210743 -118.357941 257 756ft 0kts
02-Aug-17 13:52 34.210743 -118.357941 257 756ft 0kts
02-Aug-17 13:53 34.210743 -118.357941 257 756ft 0kts
02-Aug-17 13:54 34.210754 -118.357883 258 756ft 0kts
02-Aug-17 13:55 34.210754 -118.357883 258 756ft 0kts
02-Aug-17 13:56 34.211671 -118.359036 311 761ft 0kts
02-Aug-17 13:57 34.211671 -118.359036 311 761ft 0kts
02-Aug-17 13:58 34.210534 -118.359986 165 761ft 56kts
02-Aug-17 13:59 34.171183 -118.363867 224 1092ft 206kts
02-Aug-17 14:00 34.130639 -118.410300 224 3143ft 222kts
02-Aug-17 14:01 34.085602 -118.467822 233 3910ft 264kts
02-Aug-17 14:02 34.032543 -118.532962 224 3907ft 283kts
02-Aug-17 14:03 34.041175 -118.609578 338 3903ft 297kts
02-Aug-17 14:04 34.122361 -118.624776 351 3904ft 300kts
02-Aug-17 14:05 34.200500 -118.639194 351 4960ft 268kts
02-Aug-17 14:06 34.267774 -118.652985 351 6850ft 253kts
02-Aug-17 14:07 34.326658 -118.640245 74 8795ft 234kts
02-Aug-17 14:08 34.334403 -118.564670 76 10761ft 233kts
02-Aug-17 14:09 34.363696 -118.495819 59 12719ft 238kts
02-Aug-17 14:10 34.401926 -118.430508 55 13950ft 264kts
02-Aug-17 14:11 34.445677 -118.360723 54 13966ft 296kts
02-Aug-17 14:12 34.494397 -118.283179 55 13993ft 306kts
02-Aug-17 14:13 34.545417 -118.201611 55 14014ft 309kts
02-Aug-17 14:14 34.596146 -118.120409 55 14726ft 290kts
02-Aug-17 14:15 34.632581 -118.044473 82 16677ft 251kts
02-Aug-17 14:16 34.642959 -117.957876 83 17005ft 282kts
02-Aug-17 14:17 34.651587 -117.879292 83 16998ft 296kts
02-Aug-17 14:18 34.662198 -117.781414 83 16996ft 301kts
02-Aug-17 14:19 34.688166 -117.670076 74 17007ft 305kts
02-Aug-17 14:20 34.713000 -117.573001 74 17016ft 305kts
02-Aug-17 14:21 34.733625 -117.492176 74 17015ft 305kts
02-Aug-17 14:22 34.758589 -117.394014 74 17015ft 305kts
02-Aug-17 14:23 34.783176 -117.296974 74 17013ft 306kts
02-Aug-17 14:24 34.808040 -117.198478 74 16992ft 306kts
02-Aug-17 14:25 34.832942 -117.099442 74 16962ft 307kts
02-Aug-17 14:26 34.857723 -117.000501 74 16943ft 306kts
02-Aug-17 14:27 34.882257 -116.902190 74 16936ft 306kts
02-Aug-17 14:28 34.906908 -116.803029 74 16935ft 306kts
02-Aug-17 14:29 34.931456 -116.703887 74 16935ft 306kts
02-Aug-17 14:30 34.955747 -116.605413 74 17038ft 305kts
02-Aug-17 14:31 34.991928 -116.512074 63 17056ft 309kts
02-Aug-17 14:32 35.026506 -116.434079 63 17081ft 310kts
02-Aug-17 14:33 35.058081 -116.362835 63 17100ft 311kts
02-Aug-17 14:34 35.098398 -116.271678 63 17102ft 312kts
02-Aug-17 14:35 35.138392 -116.180992 63 17101ft 313kts
02-Aug-17 14:36 35.178914 -116.088882 63 17040ft 315kts
02-Aug-17 14:37 35.220427 -115.994200 63 15970ft 332kts
02-Aug-17 14:38 35.263565 -115.895561 63 14888ft 336kts
02-Aug-17 14:39 35.306965 -115.796055 63 13963ft 332kts
02-Aug-17 14:40 35.367420 -115.711470 49 12887ft 337kts
02-Aug-17 14:41 35.421859 -115.638893 48 11140ft 306kts
02-Aug-17 14:42 35.454952 -115.594524 48 10144ft 316kts
02-Aug-17 14:43 35.514206 -115.515181 48 10099ft 314kts
02-Aug-17 14:44 35.572805 -115.436562 48 10099ft 312kts
02-Aug-17 14:45 35.631314 -115.357885 48 10099ft 312kts
02-Aug-17 14:46 35.689532 -115.279428 48 10101ft 312kts
02-Aug-17 14:47 35.748415 -115.199871 48 9626ft 324kts
02-Aug-17 14:48 35.816202 -115.119203 39 6114ft 366kts
02-Aug-17 14:49 35.903321 -115.104845 21 7041ft 293kts
02-Aug-17 14:50 35.977742 -115.069202 21 7057ft 263kts
02-Aug-17 14:51 36.033401 -115.042758 21 7046ft 176kts
02-Aug-17 14:52 36.052938 -115.045158 309 6863ft 142kts
02-Aug-17 14:53 36.054868 -115.084822 268 4884ft 152kts
02-Aug-17 14:54 36.052519 -115.127200 268 3782ft 110kts
02-Aug-17 14:55 36.055551 -115.166682 288 3746ft 114kts
02-Aug-17 14:56 36.072879 -115.193971 351 4579ft 107kts
02-Aug-17 14:57 36.112470 -115.184576 24 3561ft 214kts
02-Aug-17 14:58 36.111103 -115.149967 202 2589ft 135kts
02-Aug-17 14:59 36.088957 -115.162206 147 2124ft 15kts
02-Aug-17 15:00 36.088392 -115.160906 115 2122ft 0kts
02-Aug-17 15:01 36.088392 -115.160905 115 2122ft 0kts
02-Aug-17 15:02 36.086515 -115.157840 162 2117ft 0kts
02-Aug-17 15:03 36.084499 -115.156582 155 2116ft 37kts
02-Aug-17 15:04 36.083316 -115.153524 148 2106ft 0kts
02-Aug-17 15:05 36.083316 -115.153524 148 2106ft 0kts

Navigation Log

Ident Type
Flight plan parsing failed, navigation log unavailable